Time,TemperatureF,DewpointF,PressureIn,WindDirection,WindDirectionDegrees,WindSpeedMPH,WindSpeedGustMPH,Humidity,HourlyPrecipIn,Conditions,Clouds,dailyrainin,SolarRadiationWatts/m^2,SoftwareType,DateUTC
2013-06-23 01:11:00,71.0,67.0,30.07,South,184,0.0,0.0,88,0.00,,,0.46,0.000000,,2013-06-23 05:11:00,
2013-06-23 01:22:00,71.0,67.0,30.07,South,184,0.0,0.0,88,0.00,,,0.46,0.000000,,2013-06-23 05:22:00,
2013-06-23 01:32:00,71.0,67.0,30.07,South,184,0.0,0.0,88,0.00,,,0.46,0.000000,,2013-06-23 05:32:00,
2013-06-23 01:41:00,68.0,66.0,30.06,South,184,0.0,0.0,94,0.00,,,0.46,0.000000,,2013-06-23 05:41:00,
2013-06-23 01:51:00,67.0,65.0,30.06,South,184,0.0,0.0,94,0.00,,,0.46,0.000000,,2013-06-23 05:51:00,
2013-06-23 02:02:00,67.0,65.0,30.06,South,184,0.0,0.0,94,0.00,,,0.46,0.000000,,2013-06-23 06:02:00,
2013-06-23 02:12:00,67.0,65.0,30.06,South,184,0.0,0.0,94,0.00,,,0.46,0.000000,,2013-06-23 06:12:00,
2013-06-23 02:22:00,67.0,66.0,30.06,South,179,4.0,8.0,95,0.00,,,0.46,0.000000,,2013-06-23 06:22:00,
2013-06-23 02:33:00,68.0,67.0,30.06,South,180,4.0,7.0,95,0.00,,,0.46,0.000000,,2013-06-23 06:33:00,
2013-06-23 02:43:00,68.0,67.0,30.06,South,180,4.0,7.0,95,0.00,,,0.46,0.000000,,2013-06-23 06:43:00,
2013-06-23 02:52:00,68.0,67.0,30.06,South,180,4.0,8.0,96,0.00,,,0.46,0.000000,,2013-06-23 06:52:00,
2013-06-23 03:02:00,68.0,67.0,30.06,South,180,0.0,3.0,96,0.00,,,0.46,0.000000,,2013-06-23 07:02:00,
2013-06-23 03:12:00,68.0,67.0,30.06,South,180,0.0,3.0,96,0.00,,,0.46,0.000000,,2013-06-23 07:12:00,
2013-06-23 03:22:00,67.0,66.0,30.06,South,180,0.0,0.0,95,0.00,,,0.46,0.000000,,2013-06-23 07:22:00,
2013-06-23 03:34:00,68.0,67.0,30.06,South,179,0.0,0.0,96,0.00,,,0.46,0.000000,,2013-06-23 07:34:00,
2013-06-23 03:43:00,68.0,67.0,30.06,South,179,0.0,0.0,96,0.00,,,0.46,0.000000,,2013-06-23 07:43:00,
2013-06-23 03:53:00,67.0,66.0,30.06,South,180,0.0,0.0,95,0.00,,,0.46,0.000000,,2013-06-23 07:53:00,
2013-06-23 04:02:00,67.0,66.0,30.07,South,180,0.0,0.0,95,0.00,,,0.46,0.000000,,2013-06-23 08:02:00,
2013-06-23 04:12:00,67.0,66.0,30.07,South,180,0.0,0.0,95,0.00,,,0.46,0.000000,,2013-06-23 08:12:00,
2013-06-23 04:22:00,66.0,65.0,30.07,South,180,0.0,0.0,95,0.00,,,0.46,0.000000,,2013-06-23 08:22:00,
2013-06-23 04:34:00,66.0,65.0,30.07,South,180,0.0,0.0,95,0.00,,,0.46,0.000000,,2013-06-23 08:34:00,
2013-06-23 04:43:00,66.0,65.0,30.07,South,180,0.0,0.0,95,0.00,,,0.46,0.000000,,2013-06-23 08:43:00,
2013-06-23 04:53:00,66.0,65.0,30.08,South,180,0.0,0.0,96,0.00,,,0.46,0.000000,,2013-06-23 08:53:00,
2013-06-23 05:02:00,66.0,65.0,30.08,South,180,0.0,0.0,96,0.00,,,0.46,0.000000,,2013-06-23 09:02:00,
2013-06-23 05:12:00,66.0,65.0,30.08,South,180,0.0,0.0,96,0.00,,,0.46,0.000000,,2013-06-23 09:12:00,
2013-06-23 05:22:00,66.0,65.0,30.08,South,179,0.0,0.0,96,0.00,,,0.46,0.000000,,2013-06-23 09:22:00,
2013-06-23 05:34:00,66.0,65.0,30.08,South,179,0.0,0.0,96,0.00,,,0.46,0.000000,,2013-06-23 09:34:00,
2013-06-23 05:43:00,66.0,65.0,30.08,South,179,0.0,0.0,96,0.00,,,0.46,0.000000,,2013-06-23 09:43:00,
2013-06-23 05:54:00,66.0,65.0,30.08,South,180,0.0,0.0,97,0.00,,,0.46,0.000000,,2013-06-23 09:54:00,
2013-06-23 06:02:00,67.0,66.0,30.08,South,180,0.0,0.0,97,0.00,,,0.46,0.000000,,2013-06-23 10:02:00,
2013-06-23 06:11:00,67.0,66.0,30.08,South,180,0.0,0.0,97,0.00,,,0.46,0.000000,,2013-06-23 10:11:00,
2013-06-23 06:22:00,67.0,66.0,30.08,South,179,4.0,5.0,97,0.00,,,0.46,0.000000,,2013-06-23 10:22:00,
2013-06-23 06:34:00,67.0,66.0,30.08,South,180,7.0,10.0,97,0.00,,,0.46,0.000000,,2013-06-23 10:34:00,
2013-06-23 06:43:00,67.0,66.0,30.08,South,180,7.0,10.0,97,0.00,,,0.46,0.000000,,2013-06-23 10:43:00,
2013-06-23 06:53:00,68.0,67.0,30.08,South,179,5.0,7.0,97,0.00,,,0.46,12.000000,,2013-06-23 10:53:00,
2013-06-23 07:01:00,68.0,67.0,30.08,South,179,5.0,7.0,97,0.00,,,0.46,21.000000,,2013-06-23 11:01:00,
2013-06-23 07:11:00,68.0,67.0,30.08,South,179,5.0,7.0,97,0.00,,,0.46,21.000000,,2013-06-23 11:11:00,
2013-06-23 07:22:00,68.0,67.0,30.08,South,180,2.0,7.0,97,0.00,,,0.46,35.000000,,2013-06-23 11:22:00,
2013-06-23 07:33:00,68.0,67.0,30.08,South,179,0.0,0.0,97,0.00,,,0.46,40.000000,,2013-06-23 11:33:00,
2013-06-23 07:43:00,68.0,67.0,30.08,South,179,0.0,0.0,97,0.00,,,0.46,40.000000,,2013-06-23 11:43:00,
2013-06-23 07:53:00,68.0,67.0,30.09,South,180,0.0,0.0,97,0.00,,,0.46,44.000000,,2013-06-23 11:53:00,
2013-06-23 08:01:00,69.0,68.0,30.09,South,180,0.0,0.0,97,0.00,,,0.46,40.000000,,2013-06-23 12:01:00,
2013-06-23 08:12:00,69.0,68.0,30.09,South,180,0.0,0.0,97,0.00,,,0.46,40.000000,,2013-06-23 12:12:00,
2013-06-23 08:22:00,69.0,68.0,30.10,South,180,0.0,0.0,97,0.00,,,0.46,42.000000,,2013-06-23 12:22:00,
2013-06-23 08:33:00,69.0,68.0,30.10,South,180,0.0,0.0,97,0.00,,,0.46,58.000000,,2013-06-23 12:33:00,
2013-06-23 08:42:00,69.0,68.0,30.10,South,180,0.0,0.0,97,0.00,,,0.46,58.000000,,2013-06-23 12:42:00,
2013-06-23 08:53:00,69.0,68.0,30.09,South,180,0.0,0.0,97,0.00,,,0.46,69.000000,,2013-06-23 12:53:00,
2013-06-23 09:02:00,70.0,69.0,30.10,South,180,0.0,0.0,97,0.00,,,0.46,207.000000,,2013-06-23 13:02:00,
2013-06-23 09:23:00,71.0,70.0,30.10,South,180,5.0,9.0,96,0.00,,,0.46,301.000000,,2013-06-23 13:23:00,
2013-06-23 09:34:00,72.0,70.0,30.09,South,185,9.0,12.0,94,0.00,,,0.46,436.000000,,2013-06-23 13:34:00,
2013-06-23 09:43:00,72.0,70.0,30.09,South,185,9.0,12.0,94,0.00,,,0.46,436.000000,,2013-06-23 13:43:00,
2013-06-23 09:54:00,74.0,71.0,30.08,South,179,9.0,15.0,89,0.00,,,0.46,360.000000,,2013-06-23 13:54:00,
2013-06-23 10:04:00,76.0,71.0,30.07,SSE,163,10.0,14.0,85,0.00,,,0.46,512.000000,,2013-06-23 14:04:00,
2013-06-23 10:11:00,76.0,71.0,30.07,SSE,163,10.0,14.0,85,0.00,,,0.46,512.000000,,2013-06-23 14:11:00,
2013-06-23 10:22:00,77.0,72.0,30.06,South,186,8.0,16.0,85,0.00,,,0.46,513.000000,,2013-06-23 14:22:00,
2013-06-23 10:34:00,78.0,72.0,30.06,SSW,192,7.0,14.0,81,0.00,,,0.46,494.000000,,2013-06-23 14:34:00,
2013-06-23 10:44:00,78.0,72.0,30.06,SSW,192,7.0,14.0,81,0.00,,,0.46,494.000000,,2013-06-23 14:44:00,
2013-06-23 10:52:00,79.0,72.0,30.06,South,191,13.0,16.0,79,0.00,,,0.46,492.000000,,2013-06-23 14:52:00,
2013-06-23 11:05:00,80.0,73.0,30.06,South,184,10.0,15.0,79,0.00,,,0.46,515.000000,,2013-06-23 15:05:00,
2013-06-23 11:12:00,80.0,73.0,30.06,South,184,10.0,15.0,79,0.00,,,0.46,515.000000,,2013-06-23 15:12:00,
2013-06-23 11:23:00,81.0,74.0,30.06,South,182,5.0,11.0,79,0.00,,,0.46,577.000000,,2013-06-23 15:23:00,
2013-06-23 11:35:00,81.0,74.0,30.06,South,182,5.0,11.0,79,0.00,,,0.46,577.000000,,2013-06-23 15:35:00,
2013-06-23 11:43:00,81.0,74.0,30.06,South,182,5.0,11.0,79,0.00,,,0.46,577.000000,,2013-06-23 15:43:00,
2013-06-23 11:53:00,82.0,72.0,30.06,SW,214,11.0,17.0,73,0.00,,,0.46,656.000000,,2013-06-23 15:53:00,
2013-06-23 12:06:00,82.0,72.0,30.06,SSW,200,10.0,16.0,72,0.00,,,0.46,650.000000,,2013-06-23 16:06:00,
2013-06-23 12:12:00,82.0,72.0,30.06,SSW,200,10.0,16.0,72,0.00,,,0.46,650.000000,,2013-06-23 16:12:00,
2013-06-23 12:22:00,83.0,73.0,30.06,SW,234,12.0,15.0,72,0.00,,,0.46,563.000000,,2013-06-23 16:22:00,
2013-06-23 12:36:00,84.0,74.0,30.05,SW,230,13.0,16.0,72,0.00,,,0.46,631.000000,,2013-06-23 16:36:00,
2013-06-23 12:43:00,84.0,74.0,30.05,SW,230,13.0,16.0,72,0.00,,,0.46,631.000000,,2013-06-23 16:43:00,
2013-06-23 12:53:00,83.0,73.0,30.05,SW,218,12.0,17.0,71,0.00,,,0.46,729.000000,,2013-06-23 16:53:00,
2013-06-23 13:05:00,83.0,73.0,30.05,SW,218,12.0,17.0,71,0.00,,,0.46,729.000000,,2013-06-23 17:05:00,
2013-06-23 13:12:00,83.0,73.0,30.05,SW,218,12.0,17.0,71,0.00,,,0.46,729.000000,,2013-06-23 17:12:00,
2013-06-23 13:22:00,84.0,72.0,30.06,SW,224,14.0,22.0,68,0.00,,,0.46,849.000000,,2013-06-23 17:22:00,
2013-06-23 13:33:00,84.0,73.0,30.06,SW,214,13.0,19.0,70,0.00,,,0.46,211.000000,,2013-06-23 17:33:00,
2013-06-23 13:43:00,84.0,73.0,30.06,SW,214,13.0,19.0,70,0.00,,,0.46,211.000000,,2013-06-23 17:43:00,
2013-06-23 13:53:00,85.0,73.0,30.06,SW,225,16.0,23.0,67,0.00,,,0.46,969.000000,,2013-06-23 17:53:00,
2013-06-23 14:01:00,86.0,73.0,30.06,SW,214,17.0,24.0,66,0.00,,,0.46,1063.000000,,2013-06-23 18:01:00,
2013-06-23 14:12:00,86.0,73.0,30.06,SW,214,17.0,24.0,66,0.00,,,0.46,1063.000000,,2013-06-23 18:12:00,
2013-06-23 14:22:00,85.0,72.0,30.06,SW,219,12.0,20.0,66,0.00,,,0.46,237.000000,,2013-06-23 18:22:00,
2013-06-23 14:34:00,85.0,71.0,30.06,SW,221,13.0,21.0,64,0.00,,,0.46,283.000000,,2013-06-23 18:34:00,
2013-06-23 14:43:00,85.0,71.0,30.06,SW,221,13.0,21.0,64,0.00,,,0.46,283.000000,,2013-06-23 18:43:00,
2013-06-23 14:53:00,85.0,72.0,30.05,SW,221,14.0,20.0,66,0.00,,,0.46,962.000000,,2013-06-23 18:53:00,
2013-06-23 15:01:00,86.0,71.0,30.05,SW,227,16.0,19.0,62,0.00,,,0.46,937.000000,,2013-06-23 19:01:00,
2013-06-23 15:11:00,86.0,71.0,30.05,SW,227,16.0,19.0,62,0.00,,,0.46,937.000000,,2013-06-23 19:11:00,
2013-06-23 15:21:00,86.0,71.0,30.05,SW,232,13.0,22.0,61,0.00,,,0.46,940.000000,,2013-06-23 19:21:00,
2013-06-23 15:32:00,86.0,70.0,30.05,SW,227,13.0,21.0,60,0.00,,,0.46,919.000000,,2013-06-23 19:32:00,
2013-06-23 15:43:00,86.0,70.0,30.05,SW,227,13.0,21.0,60,0.00,,,0.46,919.000000,,2013-06-23 19:43:00,
2013-06-23 15:53:00,87.0,73.0,30.04,SSW,209,11.0,19.0,64,0.00,,,0.46,861.000000,,2013-06-23 19:53:00,
2013-06-23 16:02:00,87.0,69.0,30.02,SW,217,17.0,22.0,56,0.00,,,0.46,849.000000,,2013-06-23 20:02:00,
2013-06-23 16:12:00,87.0,69.0,30.02,SW,217,17.0,22.0,56,0.00,,,0.46,849.000000,,2013-06-23 20:12:00,
2013-06-23 16:24:00,87.0,71.0,30.02,WSW,250,11.0,14.0,59,0.00,,,0.46,819.000000,,2013-06-23 20:24:00,
2013-06-23 16:33:00,87.0,71.0,30.02,WSW,247,6.0,18.0,59,0.00,,,0.46,788.000000,,2013-06-23 20:33:00,
2013-06-23 16:42:00,87.0,71.0,30.02,WSW,247,6.0,18.0,59,0.00,,,0.46,788.000000,,2013-06-23 20:42:00,
2013-06-23 16:53:00,87.0,71.0,30.01,WSW,248,10.0,16.0,60,0.00,,,0.04,747.000000,,2013-06-23 20:53:00,
2013-06-23 17:01:00,87.0,72.0,30.01,WSW,241,9.0,18.0,61,0.00,,,0.04,745.000000,,2013-06-23 21:01:00,
2013-06-23 17:11:00,87.0,72.0,30.01,WSW,241,9.0,18.0,61,0.00,,,0.04,745.000000,,2013-06-23 21:11:00,
2013-06-23 17:22:00,87.0,71.0,30.01,WSW,253,12.0,15.0,60,0.00,,,0.04,701.000000,,2013-06-23 21:22:00,
2013-06-23 17:34:00,87.0,71.0,30.01,WSW,254,10.0,13.0,60,0.00,,,0.04,650.000000,,2013-06-23 21:34:00,
2013-06-23 17:44:00,87.0,71.0,30.01,WSW,254,10.0,13.0,60,0.00,,,0.04,650.000000,,2013-06-23 21:44:00,
2013-06-23 17:52:00,86.0,70.0,30.01,WSW,238,8.0,14.0,60,0.00,,,0.00,171.000000,,2013-06-23 21:52:00,
2013-06-23 18:01:00,86.0,71.0,30.01,SW,232,11.0,11.0,61,0.00,,,0.00,552.000000,,2013-06-23 22:01:00,
2013-06-23 18:12:00,86.0,71.0,30.01,SW,232,11.0,11.0,61,0.00,,,0.00,552.000000,,2013-06-23 22:12:00,
2013-06-23 18:22:00,86.0,71.0,30.01,WSW,242,10.0,15.0,62,0.00,,,0.00,513.000000,,2013-06-23 22:22:00,
2013-06-23 18:32:00,86.0,71.0,30.01,WSW,242,10.0,15.0,62,0.00,,,0.00,513.000000,,2013-06-23 22:32:00,
2013-06-23 18:43:00,86.0,71.0,30.01,WSW,242,10.0,15.0,62,0.00,,,0.00,513.000000,,2013-06-23 22:43:00,
2013-06-23 18:53:00,82.0,70.0,30.02,SW,235,16.0,23.0,67,0.00,,,0.00,471.000000,,2013-06-23 22:53:00,
2013-06-23 19:01:00,79.0,66.0,30.02,SW,230,15.0,25.0,65,0.00,,,0.00,438.000000,,2013-06-23 23:01:00,
2013-06-23 19:11:00,79.0,66.0,30.02,SW,230,15.0,25.0,65,0.00,,,0.00,438.000000,,2013-06-23 23:11:00,
2013-06-23 19:22:00,80.0,69.0,30.03,SSW,207,18.0,22.0,69,0.00,,,0.00,383.000000,,2013-06-23 23:22:00,
2013-06-23 19:33:00,77.0,67.0,30.04,South,175,15.0,27.0,72,0.00,,,0.00,84.000000,,2013-06-23 23:33:00,
2013-06-23 19:44:00,77.0,67.0,30.04,South,175,15.0,27.0,72,0.00,,,0.00,84.000000,,2013-06-23 23:44:00,
2013-06-23 19:52:00,75.0,67.0,30.04,South,179,11.0,20.0,76,0.00,,,0.00,98.000000,,2013-06-23 23:52:00,
2013-06-23 20:01:00,75.0,68.0,30.04,SE,126,7.0,10.0,79,0.00,,,0.00,158.000000,,2013-06-24 00:01:00,
2013-06-23 20:11:00,75.0,68.0,30.04,SE,126,7.0,10.0,79,0.00,,,0.00,158.000000,,2013-06-24 00:11:00,
2013-06-23 20:22:00,73.0,68.0,30.04,ESE,122,0.0,10.0,83,0.00,,,0.00,70.000000,,2013-06-24 00:22:00,
2013-06-23 20:33:00,72.0,68.0,30.04,ESE,107,0.0,3.0,87,0.00,,,0.00,37.000000,,2013-06-24 00:33:00,
2013-06-23 20:42:00,72.0,68.0,30.04,ESE,107,0.0,3.0,87,0.00,,,0.00,37.000000,,2013-06-24 00:42:00,
2013-06-23 20:52:00,72.0,68.0,30.03,SE,130,0.0,0.0,87,0.00,,,0.00,32.000000,,2013-06-24 00:52:00,
2013-06-23 21:02:00,72.0,69.0,30.02,ESE,119,0.0,0.0,89,0.00,,,0.00,32.000000,,2013-06-24 01:02:00,
2013-06-23 21:11:00,72.0,69.0,30.02,ESE,119,0.0,0.0,89,0.00,,,0.00,32.000000,,2013-06-24 01:11:00,
2013-06-23 21:22:00,73.0,70.0,30.04,SE,146,9.0,10.0,90,0.00,,,0.00,18.000000,,2013-06-24 01:22:00,
2013-06-23 21:32:00,72.0,69.0,30.04,SSE,161,11.0,14.0,89,0.00,,,0.00,0.000000,,2013-06-24 01:32:00,
2013-06-23 21:42:00,72.0,69.0,30.04,SSE,161,11.0,14.0,89,0.00,,,0.00,0.000000,,2013-06-24 01:42:00,
2013-06-23 21:53:00,71.0,68.0,30.03,SSE,153,0.0,10.0,89,0.00,,,0.00,0.000000,,2013-06-24 01:53:00,
2013-06-23 22:02:00,71.0,68.0,30.03,SE,136,6.0,9.0,90,0.00,,,0.00,0.000000,,2013-06-24 02:02:00,
2013-06-23 22:11:00,71.0,68.0,30.03,SE,136,6.0,9.0,90,0.00,,,0.00,0.000000,,2013-06-24 02:11:00,
2013-06-23 22:22:00,70.0,67.0,30.03,SE,144,9.0,12.0,90,0.00,,,0.00,0.000000,,2013-06-24 02:22:00,
2013-06-23 22:33:00,70.0,67.0,30.04,SSE,157,8.0,12.0,90,0.00,,,0.00,0.000000,,2013-06-24 02:33:00,
2013-06-23 22:42:00,70.0,67.0,30.04,SSE,157,8.0,12.0,90,0.00,,,0.00,0.000000,,2013-06-24 02:42:00,
2013-06-23 22:53:00,70.0,67.0,30.06,SSE,161,6.0,11.0,91,0.00,,,0.00,0.000000,,2013-06-24 02:53:00,
2013-06-23 23:01:00,70.0,68.0,30.06,SSE,159,10.0,11.0,92,0.00,,,0.00,0.000000,,2013-06-24 03:01:00,
2013-06-23 23:11:00,70.0,68.0,30.06,SSE,159,10.0,11.0,92,0.00,,,0.00,0.000000,,2013-06-24 03:11:00,
2013-06-23 23:22:00,70.0,68.0,30.06,SSE,157,10.0,13.0,93,0.00,,,0.00,0.000000,,2013-06-24 03:22:00,
2013-06-23 23:33:00,70.0,68.0,30.06,SSE,166,6.0,12.0,93,0.00,,,0.00,0.000000,,2013-06-24 03:33:00,
2013-06-23 23:43:00,70.0,68.0,30.06,SSE,166,6.0,12.0,93,0.00,,,0.00,0.000000,,2013-06-24 03:43:00,
2013-06-23 23:53:00,70.0,68.0,30.06,South,169,6.0,10.0,93,0.00,,,0.00,0.000000,,2013-06-24 03:53:00,